createdAt,value
2022-08-27T00:02:25.596Z,54.90
2022-08-27T00:05:54.587Z,54.94
2022-08-27T00:09:26.796Z,55.00
2022-08-27T00:12:57.074Z,54.90
2022-08-27T00:16:25.092Z,54.92
2022-08-27T00:20:00.499Z,54.94
2022-08-27T00:23:28.051Z,54.98
2022-08-27T00:26:56.775Z,55.09
2022-08-27T00:30:25.458Z,55.08
2022-08-27T00:33:55.376Z,55.13
2022-08-27T00:37:22.602Z,55.13
2022-08-27T00:40:50.250Z,55.12
2022-08-27T00:44:17.864Z,55.16
2022-08-27T00:47:48.621Z,55.22
2022-08-27T00:51:16.154Z,55.26
2022-08-27T00:54:43.137Z,55.29
2022-08-27T00:58:21.553Z,55.36
2022-08-27T01:02:07.670Z,55.35
2022-08-27T01:05:38.577Z,55.37
2022-08-27T01:09:15.028Z,55.41
2022-08-27T01:12:43.995Z,55.37
2022-08-27T01:16:12.302Z,55.37
2022-08-27T01:19:43.850Z,55.38
2022-08-27T01:23:19.363Z,55.48
2022-08-27T01:26:46.587Z,55.48
2022-08-27T01:30:18.455Z,55.50
2022-08-27T01:34:00.187Z,55.52
2022-08-27T01:37:28.946Z,55.59
2022-08-27T01:40:59.374Z,55.63
2022-08-27T01:44:27.318Z,55.62
2022-08-27T01:52:47.242Z,55.74
2022-08-27T01:56:15.672Z,55.73
2022-08-27T01:59:43.284Z,55.75
2022-08-27T02:03:12.502Z,55.89
2022-08-27T02:06:40.373Z,55.97
2022-08-27T02:10:10.596Z,56.08
2022-08-27T02:13:39.533Z,56.08
2022-08-27T02:17:06.575Z,56.15
2022-08-27T02:20:35.022Z,56.25
2022-08-27T02:24:02.485Z,56.30
2022-08-27T02:27:29.837Z,56.25
2022-08-27T02:30:57.553Z,56.30
2022-08-27T02:34:25.048Z,56.34
2022-08-27T02:37:52.425Z,56.43
2022-08-27T02:41:19.932Z,56.37
2022-08-27T02:44:47.635Z,56.48
2022-08-27T02:48:15.135Z,56.49
2022-08-27T02:51:45.086Z,56.53
2022-08-27T02:55:13.844Z,56.57
2022-08-27T02:58:42.421Z,56.67
2022-08-27T03:02:16.299Z,56.71
2022-08-27T03:05:43.736Z,56.81
2022-08-27T03:09:11.390Z,56.85
2022-08-27T03:12:38.439Z,56.96
2022-08-27T03:16:05.728Z,56.92
2022-08-27T03:19:33.007Z,56.91
2022-08-27T03:23:00.293Z,57.12
2022-08-27T03:26:28.585Z,57.18
2022-08-27T03:29:56.601Z,57.20
2022-08-27T03:33:26.583Z,57.31
2022-08-27T03:36:53.676Z,57.38
2022-08-27T03:40:21.312Z,57.50
2022-08-27T03:43:48.983Z,57.53
2022-08-27T03:47:16.957Z,57.49
2022-08-27T03:50:48.254Z,57.48
2022-08-27T03:54:15.480Z,57.55
2022-08-27T03:57:42.824Z,57.50
2022-08-27T04:01:12.515Z,57.50
2022-08-27T04:04:40.360Z,57.56
2022-08-27T04:08:08.585Z,57.54
2022-08-27T04:11:36.952Z,57.58
2022-08-27T04:15:07.562Z,57.65
2022-08-27T04:18:37.524Z,57.71
2022-08-27T04:22:06.537Z,57.78
2022-08-27T04:25:33.786Z,57.83
2022-08-27T04:29:01.094Z,57.91
2022-08-27T04:32:30.073Z,57.92
2022-08-27T04:36:03.559Z,58.01
2022-08-27T04:39:31.714Z,57.99
2022-08-27T04:42:58.859Z,57.98
2022-08-27T04:46:29.259Z,58.15
2022-08-27T04:49:56.586Z,58.16
2022-08-27T04:53:25.016Z,58.25
2022-08-27T04:56:52.711Z,58.32
2022-08-27T05:00:21.133Z,58.38
2022-08-27T05:03:48.317Z,58.37
2022-08-27T05:07:15.205Z,58.34
2022-08-27T05:10:48.619Z,58.40
2022-08-27T05:14:17.812Z,58.29
2022-08-27T05:17:44.499Z,58.23
2022-08-27T05:21:17.242Z,58.18
2022-08-27T05:24:50.212Z,58.16
2022-08-27T05:28:21.908Z,58.13
2022-08-27T05:31:55.254Z,58.08
2022-08-27T05:35:22.409Z,58.02
2022-08-27T05:38:50.697Z,57.96
2022-08-27T05:42:18.283Z,57.97
2022-08-27T05:45:47.289Z,57.95
2022-08-27T05:49:14.982Z,58.00
2022-08-27T05:52:44.125Z,57.92
2022-08-27T05:56:15.754Z,58.00
2022-08-27T06:00:00.593Z,57.92
2022-08-27T06:03:28.469Z,57.78
2022-08-27T06:06:56.817Z,57.89
2022-08-27T06:10:24.066Z,57.83
2022-08-27T06:13:52.647Z,57.83
2022-08-27T06:17:20.604Z,57.81
2022-08-27T06:20:48.081Z,57.69
2022-08-27T06:24:16.213Z,57.62
2022-08-27T06:27:43.356Z,57.54
2022-08-27T06:31:13.050Z,57.58
2022-08-27T06:34:44.071Z,57.63
2022-08-27T06:38:12.199Z,57.54
2022-08-27T06:41:39.645Z,57.51
2022-08-27T06:45:12.906Z,57.30
2022-08-27T06:48:40.920Z,57.15
2022-08-27T06:52:08.478Z,57.06
2022-08-27T06:55:42.273Z,56.90
2022-08-27T06:59:11.727Z,56.76
2022-08-27T07:02:39.438Z,56.69
2022-08-27T07:06:09.891Z,56.68
2022-08-27T07:09:37.435Z,56.58
2022-08-27T07:13:05.020Z,56.51
2022-08-27T07:16:32.532Z,56.31
2022-08-27T07:20:00.298Z,55.91
2022-08-27T07:23:27.495Z,55.56
2022-08-27T07:26:54.802Z,55.51
2022-08-27T07:30:21.933Z,55.30
2022-08-27T07:33:52.289Z,55.10
2022-08-27T07:37:22.470Z,54.93
2022-08-27T07:40:52.638Z,54.87
2022-08-27T07:44:33.076Z,54.87
2022-08-27T07:48:01.922Z,54.57
2022-08-27T07:51:32.810Z,54.37
2022-08-27T07:55:00.814Z,54.29
2022-08-27T07:58:27.936Z,53.94
2022-08-27T08:01:55.265Z,53.86
2022-08-27T08:05:22.909Z,53.72
2022-08-27T08:08:52.512Z,53.43
2022-08-27T08:12:22.070Z,53.44
2022-08-27T08:15:54.367Z,53.06
2022-08-27T08:19:22.465Z,52.83
2022-08-27T08:22:52.901Z,52.66
2022-08-27T08:26:20.244Z,52.50
2022-08-27T08:29:48.700Z,52.49
2022-08-27T08:33:17.137Z,52.08
2022-08-27T08:36:46.284Z,51.99
2022-08-27T08:40:32.398Z,51.85
2022-08-27T08:44:05.350Z,51.58
2022-08-27T08:47:42.856Z,51.28
2022-08-27T08:51:17.725Z,51.08
2022-08-27T08:54:45.931Z,50.81
2022-08-27T08:58:35.104Z,50.79
2022-08-27T09:02:04.458Z,50.35
2022-08-27T09:05:34.700Z,50.15
2022-08-27T09:09:08.173Z,49.79
2022-08-27T09:12:35.713Z,49.63
2022-08-27T09:16:08.033Z,49.42
2022-08-27T09:19:35.943Z,49.12
2022-08-27T09:23:15.637Z,49.01
2022-08-27T09:26:45.609Z,48.72
2022-08-27T09:30:21.137Z,48.46
2022-08-27T09:33:55.942Z,48.51
2022-08-27T09:37:34.695Z,47.92
2022-08-27T09:41:17.456Z,47.76
2022-08-27T09:44:53.718Z,47.60
2022-08-27T09:48:24.298Z,47.35
2022-08-27T09:51:52.523Z,46.96
2022-08-27T09:55:32.474Z,46.72
2022-08-27T09:59:06.039Z,46.83
2022-08-27T10:02:33.826Z,46.40
2022-08-27T10:06:03.718Z,46.27
2022-08-27T10:09:38.725Z,45.93
2022-08-27T10:13:10.684Z,45.77
2022-08-27T10:16:53.088Z,45.53
2022-08-27T10:20:29.632Z,45.41
2022-08-27T10:24:14.940Z,44.75
2022-08-27T10:27:53.033Z,44.62
2022-08-27T10:31:33.051Z,44.61
2022-08-27T10:35:11.816Z,44.19
2022-08-27T10:38:45.214Z,43.83
2022-08-27T10:42:23.174Z,43.45
2022-08-27T10:46:00.235Z,43.53
2022-08-27T10:49:39.263Z,43.43
2022-08-27T10:53:14.428Z,43.06
2022-08-27T10:56:54.263Z,42.92
2022-08-27T11:00:41.523Z,42.55
2022-08-27T11:04:12.128Z,42.35
2022-08-27T11:07:44.053Z,42.27
2022-08-27T11:15:13.166Z,41.77
2022-08-27T11:18:46.537Z,41.44
2022-08-27T11:22:26.084Z,41.50
2022-08-27T11:25:58.325Z,41.33
2022-08-27T11:29:33.815Z,41.37
2022-08-27T11:33:13.878Z,40.97
2022-08-27T11:37:03.477Z,40.60
2022-08-27T11:40:44.117Z,40.47
2022-08-27T11:44:17.846Z,40.30
2022-08-27T11:47:55.415Z,39.80
2022-08-27T11:51:35.374Z,39.28
2022-08-27T11:55:27.728Z,39.19
2022-08-27T11:58:53.938Z,38.91
2022-08-27T12:02:26.368Z,38.29
2022-08-27T12:06:18.975Z,37.71
2022-08-27T12:09:59.358Z,37.23
2022-08-27T12:13:36.362Z,37.22
2022-08-27T12:17:13.108Z,37.05
2022-08-27T12:20:51.875Z,36.35
2022-08-27T12:24:41.499Z,35.96
2022-08-27T12:28:10.976Z,35.85
2022-08-27T12:31:41.480Z,35.03
2022-08-27T12:35:15.098Z,34.92
2022-08-27T12:38:51.126Z,34.58
2022-08-27T12:42:24.270Z,34.43
2022-08-27T12:45:59.175Z,34.21
2022-08-27T12:49:46.203Z,34.14
2022-08-27T12:53:26.897Z,33.61
2022-08-27T12:57:09.516Z,33.18
2022-08-27T13:00:38.955Z,32.81
2022-08-27T13:04:08.462Z,32.62
2022-08-27T13:07:44.311Z,32.45
2022-08-27T13:11:19.587Z,32.48
2022-08-27T13:14:48.960Z,31.97
2022-08-27T13:18:30.104Z,31.92
2022-08-27T13:26:33.453Z,31.32
2022-08-27T13:30:35.685Z,31.07
2022-08-27T13:34:44.105Z,30.76
2022-08-27T13:38:27.430Z,30.88
2022-08-27T13:41:57.050Z,30.49
2022-08-27T13:45:27.676Z,30.69
2022-08-27T13:49:00.540Z,30.54
2022-08-27T13:52:34.413Z,30.24
2022-08-27T13:56:05.606Z,29.92
2022-08-27T13:59:39.032Z,29.97
2022-08-27T14:03:28.315Z,29.65
2022-08-27T14:06:56.492Z,29.29
2022-08-27T14:10:38.328Z,29.07
2022-08-27T14:14:12.936Z,29.07
2022-08-27T14:17:41.110Z,29.16
2022-08-27T14:21:08.491Z,28.82
2022-08-27T14:24:35.606Z,28.65
2022-08-27T14:28:03.286Z,28.53
2022-08-27T14:31:32.098Z,28.45
2022-08-27T14:35:00.692Z,28.38
2022-08-27T14:38:33.310Z,28.60
2022-08-27T14:42:00.708Z,28.69
2022-08-27T14:45:28.595Z,28.78
2022-08-27T14:48:58.132Z,28.98
2022-08-27T14:52:25.849Z,28.74
2022-08-27T14:55:53.157Z,28.85
2022-08-27T14:59:20.872Z,28.96
2022-08-27T15:02:49.772Z,29.03
2022-08-27T15:06:20.212Z,29.39
2022-08-27T15:09:55.719Z,29.60
2022-08-27T15:13:26.011Z,29.64
2022-08-27T15:16:57.258Z,29.82
2022-08-27T15:20:25.698Z,29.95
2022-08-27T15:24:02.140Z,30.05
2022-08-27T15:27:38.397Z,29.60
2022-08-27T15:31:06.748Z,29.94
2022-08-27T15:34:35.687Z,30.05
2022-08-27T15:38:03.481Z,30.14
2022-08-27T15:41:34.071Z,30.06
2022-08-27T15:45:03.930Z,30.35
2022-08-27T15:48:33.356Z,30.39
2022-08-27T15:52:01.531Z,30.57
2022-08-27T15:55:31.588Z,30.66
2022-08-27T15:59:01.049Z,30.81
2022-08-27T16:02:30.937Z,31.04
2022-08-27T16:05:59.557Z,31.38
2022-08-27T16:09:29.828Z,31.54
2022-08-27T16:12:58.237Z,31.56
2022-08-27T16:16:31.185Z,31.61
2022-08-27T16:19:59.818Z,32.04
2022-08-27T16:23:28.808Z,31.85
2022-08-27T16:27:01.247Z,31.94
2022-08-27T16:30:29.781Z,32.41
2022-08-27T16:34:01.133Z,32.44
2022-08-27T16:37:28.954Z,32.52
2022-08-27T16:41:02.068Z,32.72
2022-08-27T16:44:32.400Z,33.03
2022-08-27T16:48:19.351Z,33.03
2022-08-27T16:51:48.899Z,33.35
2022-08-27T16:55:15.507Z,33.35
2022-08-27T16:58:42.989Z,33.77
2022-08-27T17:02:16.144Z,34.03
2022-08-27T17:05:43.086Z,34.23
2022-08-27T17:09:10.588Z,34.55
2022-08-27T17:12:39.360Z,34.60
2022-08-27T17:16:07.304Z,34.89
2022-08-27T17:19:37.406Z,35.07
2022-08-27T17:23:05.420Z,35.32
2022-08-27T17:26:35.206Z,35.68
2022-08-27T17:30:02.259Z,35.99
2022-08-27T17:33:33.490Z,36.34
2022-08-27T17:37:08.553Z,36.30
2022-08-27T17:40:38.661Z,36.64
2022-08-27T17:44:11.977Z,36.70
2022-08-27T17:47:40.535Z,36.97
2022-08-27T17:51:11.579Z,37.11
2022-08-27T17:54:42.469Z,37.27
2022-08-27T18:02:10.633Z,38.01
2022-08-27T18:05:48.688Z,38.11
2022-08-27T18:09:24.823Z,38.49
2022-08-27T18:12:53.400Z,38.71
2022-08-27T18:16:30.717Z,38.83
2022-08-27T18:20:06.102Z,39.20
2022-08-27T18:23:35.475Z,39.61
2022-08-27T18:27:07.896Z,39.89
2022-08-27T18:30:35.740Z,40.16
2022-08-27T18:34:05.118Z,40.40
2022-08-27T18:37:39.993Z,40.58
2022-08-27T18:41:13.492Z,40.86
2022-08-27T18:44:53.365Z,41.12
2022-08-27T18:48:29.516Z,41.32
2022-08-27T18:52:05.206Z,41.63
2022-08-27T18:55:38.495Z,41.85
2022-08-27T18:59:25.885Z,42.09
2022-08-27T19:02:54.824Z,42.33
2022-08-27T19:06:23.556Z,42.49
2022-08-27T19:09:53.497Z,42.70
2022-08-27T19:13:23.962Z,42.90
2022-08-27T19:16:56.555Z,43.07
2022-08-27T19:20:27.900Z,43.30
2022-08-27T19:23:57.151Z,43.60
2022-08-27T19:27:38.959Z,43.69
2022-08-27T19:31:08.852Z,44.00
2022-08-27T19:34:43.231Z,44.19
2022-08-27T19:38:17.895Z,44.22
2022-08-27T19:41:47.224Z,44.47
2022-08-27T19:45:24.428Z,44.72
2022-08-27T19:48:56.232Z,44.77
2022-08-27T19:52:31.901Z,45.11
2022-08-27T19:56:01.546Z,45.30
2022-08-27T19:59:36.584Z,45.54
2022-08-27T20:03:11.070Z,45.72
2022-08-27T20:06:39.175Z,45.80
2022-08-27T20:10:09.280Z,45.99
2022-08-27T20:13:38.023Z,46.20
2022-08-27T20:17:17.965Z,46.27
2022-08-27T20:20:45.675Z,46.54
2022-08-27T20:24:16.047Z,46.77
2022-08-27T20:27:43.603Z,47.01
2022-08-27T20:31:11.934Z,47.25
2022-08-27T20:34:49.574Z,47.50
2022-08-27T20:38:20.668Z,47.60
2022-08-27T20:41:51.913Z,47.74
2022-08-27T20:45:19.889Z,47.98
2022-08-27T20:48:50.222Z,48.07
2022-08-27T20:52:19.526Z,48.28
2022-08-27T20:55:49.719Z,48.62
2022-08-27T20:59:36.642Z,48.68
2022-08-27T21:03:06.475Z,49.04
2022-08-27T21:06:33.857Z,49.15
2022-08-27T21:10:01.567Z,49.36
2022-08-27T21:13:51.147Z,49.49
2022-08-27T21:17:24.609Z,49.67
2022-08-27T21:20:57.795Z,49.96
2022-08-27T21:24:29.171Z,50.07
2022-08-27T21:28:01.366Z,50.24
2022-08-27T21:31:34.388Z,50.39
2022-08-27T21:35:03.832Z,50.59
2022-08-27T21:38:31.322Z,50.73
2022-08-27T21:42:01.814Z,50.93
2022-08-27T21:45:29.106Z,51.13
2022-08-27T21:48:59.099Z,51.21
2022-08-27T21:52:29.028Z,51.36
2022-08-27T21:55:59.465Z,51.50
2022-08-27T21:59:26.990Z,51.55
2022-08-27T22:02:57.430Z,51.67
2022-08-27T22:06:26.011Z,51.87
2022-08-27T22:09:56.436Z,52.11
2022-08-27T22:13:24.680Z,52.29
2022-08-27T22:16:52.037Z,52.39
2022-08-27T22:20:19.871Z,52.41
2022-08-27T22:23:47.537Z,52.46
2022-08-27T22:27:15.249Z,52.50
2022-08-27T22:30:43.174Z,52.63
2022-08-27T22:34:14.975Z,52.64
2022-08-27T22:37:43.229Z,52.83
2022-08-27T22:41:12.736Z,52.88
2022-08-27T22:44:42.817Z,53.07
2022-08-27T22:48:09.769Z,53.22
2022-08-27T22:51:51.338Z,53.27
2022-08-27T22:55:22.583Z,53.40
2022-08-27T22:58:50.393Z,53.60
2022-08-27T23:02:18.152Z,53.71
2022-08-27T23:05:45.795Z,53.80
2022-08-27T23:09:13.877Z,53.90
2022-08-27T23:12:40.550Z,54.11
2022-08-27T23:16:14.139Z,54.31
2022-08-27T23:19:43.873Z,54.50
2022-08-27T23:23:13.799Z,54.60
2022-08-27T23:26:58.368Z,54.72
2022-08-27T23:30:26.710Z,55.01
2022-08-27T23:33:56.200Z,54.98
2022-08-27T23:37:25.413Z,55.02
2022-08-27T23:40:53.717Z,55.07
2022-08-27T23:44:20.753Z,55.23
2022-08-27T23:47:48.552Z,55.39
2022-08-27T23:51:15.330Z,55.42
2022-08-27T23:54:42.328Z,55.51
2022-08-27T23:58:10.312Z,55.52
